Dallas, Iowa
Current Conditions -  °F | °C
As of 12:35 AM on Tuesday 21 Oct 2014 (Local Time) from KOXV Reporting Station
Clear Clear  
Wind Chill:   Ceiling: Unl
Heat Index:   Visibility: 10mi
Dew Point:   Wind: 6mph
Humidity: 71%   Direction: 280°W
Pressure: 30.03"   Gusts: NA
Location:  41.23°N, 93.24°W
Report Text: KOXV 210535Z AUTO 28005KT 10SM CLR 09/04 A3003 RMK AO2
Loading
Personal Weather Stations






























Interactive Weather Map
Tropical Storm Tracking
New forecast layout! Learn more

10-Day Weather Forecast

Advertisements
Track Severe Weather on mobile